Terminal Aerodrome Forecast
Issued by NWS

Home | Current Version | Previous Version | Text Only | Print | Product List | Glossary On
Versions: 1 2 3 4 5 6 7 8 9 10 11 12 13 14 15 16 17 18 19 20
000
FTUS46 KOTX 310104 AAA
TAFSFF
TAF AMD
KSFF 310104Z 3101/3124 30006KT P6SM -SHRA BKN040 BKN080
     FM310230 00000KT P6SM FEW050
     FM311200 00000KT P6SM MIFG FEW001
     FM311700 01003KT P6SM SCT050=

USA.gov is the U.S. government's official web portal to all federal, state and local government web resources and services.